CFG5YW EDDF-EDDH
Flight info
| Callsign | CFG5YW |
|---|---|
| Flight time | 0h 52m |
| Altitude | 31000 |
| Route | MARUN3W/25C MARUN Y150 TOLGI DCT SAS/N0443F300 P605 NOLGO NOLGO6A |
| Aircraft | A321/M-SDE3FGHIRWY/LB1 |
Departure
| Time | 2026-05-05 15:51 |
|---|---|
| Airport | Frankfurt Main Airport (EDDF) |
Arrival
| Time | 2026-05-05 16:44 |
|---|---|
| Airport | Hamburg Helmut Schmidt Airport (EDDH) |
| Time | Latitude | Longitude | Altitude | Speed | Heading |
|---|---|---|---|---|---|
| 2026-05-05 15:27 | 50.04717 | 8.58122 | 348 ft | 0 kts | 159° |
| 2026-05-05 15:43 | 50.04724 | 8.58118 | 348 ft | 2 kts | 159° |
| 2026-05-05 15:43 | 50.04742 | 8.58108 | 355 ft | 3 kts | 159° |
| 2026-05-05 15:43 | 50.04761 | 8.58097 | 353 ft | 3 kts | 159° |
| 2026-05-05 15:43 | 50.04777 | 8.58087 | 357 ft | 3 kts | 124° |
| 2026-05-05 15:44 | 50.04779 | 8.58066 | 357 ft | 3 kts | 72° |
| 2026-05-05 15:44 | 50.04776 | 8.58049 | 358 ft | 2 kts | 69° |
| 2026-05-05 15:44 | 50.04770 | 8.58026 | 359 ft | 1 kts | 69° |
| 2026-05-05 15:44 | 50.04770 | 8.58024 | 359 ft | 0 kts | 69° |
| 2026-05-05 15:47 | 50.04774 | 8.58040 | 358 ft | 7 kts | 69° |
| 2026-05-05 15:47 | 50.04789 | 8.58093 | 357 ft | 7 kts | 64° |
| 2026-05-05 15:47 | 50.04814 | 8.58191 | 352 ft | 12 kts | 70° |
| 2026-05-05 15:47 | 50.04850 | 8.58342 | 357 ft | 14 kts | 69° |
| 2026-05-05 15:48 | 50.04877 | 8.58452 | 356 ft | 8 kts | 69° |
| 2026-05-05 15:48 | 50.04895 | 8.58529 | 357 ft | 13 kts | 70° |
| 2026-05-05 15:48 | 50.04910 | 8.58646 | 348 ft | 8 kts | 111° |
| 2026-05-05 15:48 | 50.04854 | 8.58703 | 355 ft | 9 kts | 158° |
| 2026-05-05 15:49 | 50.04802 | 8.58735 | 356 ft | 13 kts | 159° |
| 2026-05-05 15:49 | 50.04681 | 8.58762 | 348 ft | 18 kts | 187° |
| 2026-05-05 15:49 | 50.04586 | 8.58717 | 351 ft | 12 kts | 218° |
| 2026-05-05 15:49 | 50.04525 | 8.58644 | 355 ft | 13 kts | 214° |
| 2026-05-05 15:50 | 50.04470 | 8.58520 | 358 ft | 15 kts | 249° |
| 2026-05-05 15:50 | 50.04388 | 8.58178 | 353 ft | 64 kts | 249° |
| 2026-05-05 15:50 | 50.04165 | 8.57243 | 358 ft | 118 kts | 250° |
| 2026-05-05 15:50 | 50.03828 | 8.55828 | 356 ft | 159 kts | 250° |
| 2026-05-05 15:51 | 50.03411 | 8.54081 | 590 ft | 176 kts | 250° |
| 2026-05-05 15:51 | 50.02981 | 8.52274 | 1139 ft | 180 kts | 249° |
| 2026-05-05 15:51 | 50.02509 | 8.50457 | 1627 ft | 186 kts | 242° |
| 2026-05-05 15:51 | 50.01629 | 8.48910 | 1878 ft | 198 kts | 216° |
| 2026-05-05 15:52 | 50.00384 | 8.48060 | 2334 ft | 201 kts | 194° |
| 2026-05-05 15:52 | 49.98990 | 8.47739 | 2822 ft | 203 kts | 189° |
| 2026-05-05 15:52 | 49.97584 | 8.47434 | 3392 ft | 204 kts | 190° |
| 2026-05-05 15:52 | 49.96176 | 8.47107 | 4011 ft | 205 kts | 194° |
| 2026-05-05 15:53 | 49.94753 | 8.46486 | 4340 ft | 224 kts | 198° |
| 2026-05-05 15:53 | 49.93214 | 8.45768 | 4778 ft | 235 kts | 199° |
| 2026-05-05 15:53 | 49.91776 | 8.44557 | 5391 ft | 239 kts | 224° |
| 2026-05-05 15:53 | 49.90840 | 8.42436 | 6048 ft | 243 kts | 250° |
| 2026-05-05 15:54 | 49.90646 | 8.39819 | 6673 ft | 250 kts | 277° |
| 2026-05-05 15:54 | 49.91295 | 8.37306 | 7286 ft | 258 kts | 306° |
| 2026-05-05 15:54 | 49.92692 | 8.35537 | 7904 ft | 266 kts | 334° |
| 2026-05-05 15:54 | 49.94434 | 8.34364 | 8260 ft | 283 kts | 336° |
| 2026-05-05 15:55 | 49.96261 | 8.33183 | 8763 ft | 292 kts | 336° |
| 2026-05-05 15:55 | 49.98152 | 8.31974 | 9396 ft | 296 kts | 336° |
| 2026-05-05 15:55 | 50.00074 | 8.30748 | 10002 ft | 301 kts | 336° |
| 2026-05-05 15:55 | 50.02117 | 8.29623 | 10200 ft | 323 kts | 345° |
| 2026-05-05 15:56 | 50.04399 | 8.29055 | 10321 ft | 344 kts | 356° |
| 2026-05-05 15:56 | 50.06852 | 8.29188 | 10498 ft | 361 kts | 8° |
| 2026-05-05 15:56 | 50.09312 | 8.30121 | 10972 ft | 367 kts | 19° |
| 2026-05-05 15:56 | 50.11747 | 8.31399 | 11555 ft | 371 kts | 19° |
| 2026-05-05 15:57 | 50.14203 | 8.32683 | 12172 ft | 374 kts | 19° |
| 2026-05-05 15:57 | 50.16675 | 8.33979 | 12790 ft | 377 kts | 19° |
| 2026-05-05 15:57 | 50.19173 | 8.35292 | 13422 ft | 380 kts | 19° |
| 2026-05-05 15:57 | 50.21659 | 8.36597 | 13993 ft | 384 kts | 19° |
| 2026-05-05 15:58 | 50.24194 | 8.37930 | 14540 ft | 387 kts | 19° |
| 2026-05-05 15:58 | 50.26758 | 8.39280 | 15092 ft | 390 kts | 19° |
| 2026-05-05 15:58 | 50.29336 | 8.40637 | 15623 ft | 393 kts | 19° |
| 2026-05-05 15:58 | 50.31934 | 8.42024 | 16128 ft | 396 kts | 20° |
| 2026-05-05 15:59 | 50.34550 | 8.43448 | 16652 ft | 399 kts | 20° |
| 2026-05-05 15:59 | 50.37181 | 8.44892 | 17147 ft | 404 kts | 20° |
| 2026-05-05 15:59 | 50.39843 | 8.46356 | 17674 ft | 407 kts | 20° |
| 2026-05-05 15:59 | 50.42496 | 8.47813 | 18201 ft | 411 kts | 20° |
| 2026-05-05 16:00 | 50.45207 | 8.49300 | 18684 ft | 415 kts | 20° |
| 2026-05-05 16:00 | 50.47952 | 8.50796 | 19145 ft | 419 kts | 19° |
| 2026-05-05 16:00 | 50.50734 | 8.52222 | 19571 ft | 422 kts | 18° |
| 2026-05-05 16:00 | 50.53551 | 8.53570 | 19979 ft | 424 kts | 17° |
| 2026-05-05 16:01 | 50.56395 | 8.54884 | 20466 ft | 428 kts | 17° |
| 2026-05-05 16:01 | 50.59265 | 8.56205 | 20937 ft | 432 kts | 17° |
| 2026-05-05 16:01 | 50.62157 | 8.57552 | 21426 ft | 435 kts | 17° |
| 2026-05-05 16:01 | 50.65072 | 8.58931 | 21923 ft | 439 kts | 17° |
| 2026-05-05 16:02 | 50.67960 | 8.60317 | 22349 ft | 441 kts | 17° |
| 2026-05-05 16:02 | 50.70902 | 8.61740 | 22733 ft | 444 kts | 17° |
| 2026-05-05 16:02 | 50.73869 | 8.63181 | 23116 ft | 447 kts | 18° |
| 2026-05-05 16:02 | 50.76846 | 8.64649 | 23466 ft | 449 kts | 20° |
| 2026-05-05 16:03 | 50.79713 | 8.66632 | 23774 ft | 451 kts | 30° |
| 2026-05-05 16:03 | 50.82339 | 8.69338 | 24074 ft | 451 kts | 40° |
| 2026-05-05 16:03 | 50.84650 | 8.72681 | 24382 ft | 451 kts | 49° |
| 2026-05-05 16:03 | 50.86599 | 8.76496 | 24668 ft | 452 kts | 55° |
| 2026-05-05 16:04 | 50.88497 | 8.80464 | 24977 ft | 454 kts | 55° |
| 2026-05-05 16:04 | 50.90408 | 8.84460 | 25293 ft | 456 kts | 55° |
| 2026-05-05 16:04 | 50.92329 | 8.88478 | 25616 ft | 458 kts | 55° |
| 2026-05-05 16:04 | 50.94259 | 8.92519 | 25916 ft | 461 kts | 55° |
| 2026-05-05 16:05 | 50.96197 | 8.96581 | 26219 ft | 463 kts | 55° |
| 2026-05-05 16:05 | 50.98143 | 9.00663 | 26513 ft | 465 kts | 55° |
| 2026-05-05 16:05 | 51.00096 | 9.04773 | 26767 ft | 468 kts | 55° |
| 2026-05-05 16:05 | 51.02034 | 9.08862 | 27004 ft | 471 kts | 55° |
| 2026-05-05 16:06 | 51.04005 | 9.13028 | 27266 ft | 473 kts | 55° |
| 2026-05-05 16:06 | 51.05986 | 9.17220 | 27531 ft | 476 kts | 55° |
| 2026-05-05 16:06 | 51.08103 | 9.21285 | 27799 ft | 480 kts | 47° |
| 2026-05-05 16:06 | 51.10608 | 9.24820 | 28038 ft | 484 kts | 38° |
| 2026-05-05 16:07 | 51.13453 | 9.27708 | 28280 ft | 487 kts | 28° |
| 2026-05-05 16:07 | 51.16572 | 9.29846 | 28524 ft | 490 kts | 18° |
| 2026-05-05 16:07 | 51.19877 | 9.31198 | 28767 ft | 491 kts | 11° |
| 2026-05-05 16:07 | 51.23226 | 9.32341 | 29143 ft | 493 kts | 11° |
| 2026-05-05 16:08 | 51.26578 | 9.33498 | 29725 ft | 492 kts | 11° |
| 2026-05-05 16:08 | 51.29877 | 9.34643 | 30131 ft | 491 kts | 11° |
| 2026-05-05 16:08 | 51.33216 | 9.35806 | 30433 ft | 491 kts | 11° |
| 2026-05-05 16:08 | 51.36546 | 9.36966 | 30709 ft | 491 kts | 11° |
| 2026-05-05 16:09 | 51.39879 | 9.38127 | 30802 ft | 486 kts | 11° |
| 2026-05-05 16:09 | 51.46419 | 9.40414 | 30808 ft | 477 kts | 11° |
| 2026-05-05 16:10 | 51.52897 | 9.42690 | 30810 ft | 476 kts | 11° |
| 2026-05-05 16:10 | 51.59324 | 9.44953 | 30812 ft | 476 kts | 11° |
| 2026-05-05 16:11 | 51.65791 | 9.47229 | 30821 ft | 476 kts | 11° |
| 2026-05-05 16:12 | 51.78695 | 9.51787 | 30850 ft | 474 kts | 11° |
| 2026-05-05 16:12 | 51.84973 | 9.54971 | 30853 ft | 475 kts | 25° |
| 2026-05-05 16:13 | 51.93753 | 9.62247 | 30842 ft | 475 kts | 26° |
| 2026-05-05 16:13 | 51.99641 | 9.67126 | 30838 ft | 475 kts | 26° |
| 2026-05-05 16:14 | 52.11420 | 9.76938 | 30843 ft | 476 kts | 26° |
| 2026-05-05 16:15 | 52.23191 | 9.86818 | 30444 ft | 479 kts | 23° |
| 2026-05-05 16:16 | 52.29411 | 9.90313 | 29241 ft | 468 kts | 12° |
| 2026-05-05 16:16 | 52.35639 | 9.93036 | 28179 ft | 459 kts | 12° |
| 2026-05-05 16:17 | 52.41755 | 9.95737 | 27109 ft | 451 kts | 12° |
| 2026-05-05 16:17 | 52.44772 | 9.97076 | 26589 ft | 447 kts | 12° |
| 2026-05-05 16:18 | 52.50689 | 9.99712 | 25562 ft | 440 kts | 13° |
| 2026-05-05 16:18 | 52.53631 | 10.01026 | 25062 ft | 436 kts | 13° |
| 2026-05-05 16:18 | 52.59447 | 10.03609 | 24090 ft | 429 kts | 13° |
| 2026-05-05 16:19 | 52.62320 | 10.04885 | 23603 ft | 426 kts | 13° |
| 2026-05-05 16:19 | 52.65167 | 10.06151 | 23097 ft | 422 kts | 13° |
| 2026-05-05 16:19 | 52.70749 | 10.08639 | 22223 ft | 409 kts | 13° |
| 2026-05-05 16:20 | 52.76125 | 10.11054 | 21399 ft | 397 kts | 12° |
| 2026-05-05 16:20 | 52.81502 | 10.11917 | 20593 ft | 383 kts | 359° |
| 2026-05-05 16:21 | 52.86782 | 10.12072 | 19783 ft | 375 kts | 359° |
| 2026-05-05 16:22 | 52.94516 | 10.12333 | 18548 ft | 366 kts | 359° |
| 2026-05-05 16:22 | 52.99573 | 10.12497 | 17685 ft | 361 kts | 359° |
| 2026-05-05 16:23 | 53.04536 | 10.12661 | 16869 ft | 353 kts | 359° |
| 2026-05-05 16:23 | 53.06978 | 10.12746 | 16465 ft | 350 kts | 359° |
| 2026-05-05 16:23 | 53.11775 | 10.12895 | 15674 ft | 344 kts | 359° |
| 2026-05-05 16:24 | 53.14123 | 10.12543 | 15350 ft | 335 kts | 343° |
| 2026-05-05 16:24 | 53.16236 | 10.11034 | 14981 ft | 329 kts | 324° |
| 2026-05-05 16:24 | 53.18967 | 10.05267 | 14232 ft | 317 kts | 288° |
| 2026-05-05 16:25 | 53.19619 | 10.01751 | 13864 ft | 318 kts | 286° |
| 2026-05-05 16:25 | 53.20896 | 9.94777 | 13098 ft | 314 kts | 286° |
| 2026-05-05 16:25 | 53.21537 | 9.91302 | 12724 ft | 312 kts | 286° |
| 2026-05-05 16:26 | 53.22806 | 9.84437 | 11965 ft | 308 kts | 286° |
| 2026-05-05 16:26 | 53.24060 | 9.77642 | 11218 ft | 305 kts | 286° |
| 2026-05-05 16:27 | 53.24680 | 9.74268 | 10830 ft | 303 kts | 285° |
| 2026-05-05 16:27 | 53.25293 | 9.70916 | 10466 ft | 301 kts | 285° |
| 2026-05-05 16:27 | 53.25886 | 9.67663 | 10313 ft | 292 kts | 285° |
| 2026-05-05 16:27 | 53.26467 | 9.64458 | 10115 ft | 285 kts | 285° |
| 2026-05-05 16:28 | 53.27034 | 9.61320 | 10040 ft | 281 kts | 285° |
| 2026-05-05 16:28 | 53.27599 | 9.58197 | 9990 ft | 280 kts | 285° |
| 2026-05-05 16:28 | 53.28165 | 9.55084 | 9893 ft | 281 kts | 287° |
| 2026-05-05 16:28 | 53.29010 | 9.52112 | 9451 ft | 286 kts | 302° |
| 2026-05-05 16:29 | 53.30321 | 9.49619 | 9077 ft | 286 kts | 317° |
| 2026-05-05 16:29 | 53.31332 | 9.48193 | 8660 ft | 290 kts | 318° |
| 2026-05-05 16:29 | 53.32936 | 9.46209 | 8386 ft | 285 kts | 333° |
| 2026-05-05 16:29 | 53.34863 | 9.45524 | 8005 ft | 287 kts | 2° |
| 2026-05-05 16:30 | 53.36735 | 9.46537 | 7554 ft | 284 kts | 33° |
| 2026-05-05 16:30 | 53.38553 | 9.49660 | 6744 ft | 285 kts | 50° |
| 2026-05-05 16:30 | 53.39822 | 9.52200 | 6202 ft | 283 kts | 50° |
| 2026-05-05 16:30 | 53.40787 | 9.55045 | 5517 ft | 283 kts | 79° |
| 2026-05-05 16:31 | 53.40832 | 9.57177 | 5406 ft | 270 kts | 99° |
| 2026-05-05 16:31 | 53.40266 | 9.60029 | 5398 ft | 251 kts | 120° |
| 2026-05-05 16:31 | 53.39212 | 9.62323 | 5404 ft | 249 kts | 139° |
| 2026-05-05 16:31 | 53.37760 | 9.63874 | 5405 ft | 248 kts | 160° |
| 2026-05-05 16:32 | 53.36080 | 9.64443 | 5356 ft | 246 kts | 179° |
| 2026-05-05 16:32 | 53.34368 | 9.64390 | 4960 ft | 246 kts | 183° |
| 2026-05-05 16:32 | 53.32682 | 9.64207 | 4984 ft | 247 kts | 184° |
| 2026-05-05 16:32 | 53.30955 | 9.63989 | 4987 ft | 247 kts | 187° |
| 2026-05-05 16:33 | 53.29396 | 9.63031 | 4986 ft | 240 kts | 218° |
| 2026-05-05 16:33 | 53.28260 | 9.61063 | 4993 ft | 239 kts | 233° |
| 2026-05-05 16:33 | 53.27559 | 9.58595 | 4988 ft | 236 kts | 263° |
| 2026-05-05 16:33 | 53.27737 | 9.55909 | 4991 ft | 235 kts | 295° |
| 2026-05-05 16:34 | 53.28719 | 9.53772 | 4997 ft | 234 kts | 320° |
| 2026-05-05 16:34 | 53.29994 | 9.52070 | 4992 ft | 236 kts | 323° |
| 2026-05-05 16:34 | 53.31307 | 9.50437 | 4866 ft | 234 kts | 324° |
| 2026-05-05 16:34 | 53.32617 | 9.48822 | 4549 ft | 233 kts | 324° |
| 2026-05-05 16:35 | 53.33915 | 9.47202 | 4249 ft | 232 kts | 324° |
| 2026-05-05 16:35 | 53.35196 | 9.45589 | 4028 ft | 229 kts | 324° |
| 2026-05-05 16:35 | 53.36484 | 9.44002 | 3993 ft | 230 kts | 333° |
| 2026-05-05 16:35 | 53.37973 | 9.43363 | 3945 ft | 224 kts | 4° |
| 2026-05-05 16:36 | 53.39417 | 9.44148 | 3650 ft | 219 kts | 37° |
| 2026-05-05 16:36 | 53.40311 | 9.46147 | 3255 ft | 219 kts | 73° |
| 2026-05-05 16:36 | 53.40572 | 9.48651 | 3001 ft | 218 kts | 79° |
| 2026-05-05 16:36 | 53.40837 | 9.51153 | 2990 ft | 220 kts | 78° |
| 2026-05-05 16:37 | 53.41123 | 9.53669 | 2988 ft | 220 kts | 73° |
| 2026-05-05 16:37 | 53.41764 | 9.55970 | 2993 ft | 219 kts | 56° |
| 2026-05-05 16:37 | 53.42680 | 9.57998 | 2993 ft | 218 kts | 50° |
| 2026-05-05 16:37 | 53.43654 | 9.59944 | 2993 ft | 218 kts | 50° |
| 2026-05-05 16:38 | 53.44633 | 9.61887 | 3010 ft | 218 kts | 50° |
| 2026-05-05 16:38 | 53.45610 | 9.63832 | 3006 ft | 218 kts | 50° |
| 2026-05-05 16:38 | 53.46574 | 9.65754 | 3007 ft | 219 kts | 50° |
| 2026-05-05 16:38 | 53.47551 | 9.67704 | 3006 ft | 219 kts | 50° |
| 2026-05-05 16:39 | 53.48529 | 9.69657 | 3006 ft | 218 kts | 50° |
| 2026-05-05 16:39 | 53.49506 | 9.71612 | 3007 ft | 219 kts | 49° |
| 2026-05-05 16:39 | 53.50485 | 9.73570 | 3010 ft | 218 kts | 50° |
| 2026-05-05 16:39 | 53.51463 | 9.75528 | 3008 ft | 219 kts | 50° |
| 2026-05-05 16:40 | 53.52416 | 9.77437 | 2950 ft | 206 kts | 50° |
| 2026-05-05 16:40 | 53.53312 | 9.79235 | 2766 ft | 195 kts | 50° |
| 2026-05-05 16:40 | 53.54154 | 9.80925 | 2505 ft | 184 kts | 50° |
| 2026-05-05 16:40 | 53.54956 | 9.82533 | 2267 ft | 175 kts | 50° |
| 2026-05-05 16:41 | 53.55709 | 9.84046 | 2046 ft | 164 kts | 50° |
| 2026-05-05 16:41 | 53.56434 | 9.85504 | 1808 ft | 161 kts | 51° |
| 2026-05-05 16:41 | 53.57141 | 9.86927 | 1597 ft | 153 kts | 51° |
| 2026-05-05 16:41 | 53.57802 | 9.88257 | 1392 ft | 144 kts | 51° |
| 2026-05-05 16:42 | 53.58430 | 9.89522 | 1191 ft | 141 kts | 50° |
| 2026-05-05 16:42 | 53.59055 | 9.90782 | 980 ft | 141 kts | 51° |
| 2026-05-05 16:42 | 53.59681 | 9.92044 | 796 ft | 141 kts | 50° |
| 2026-05-05 16:42 | 53.60308 | 9.93309 | 606 ft | 140 kts | 51° |
| 2026-05-05 16:43 | 53.60937 | 9.94576 | 392 ft | 140 kts | 51° |
| 2026-05-05 16:43 | 53.61566 | 9.95844 | 204 ft | 141 kts | 51° |
| 2026-05-05 16:43 | 53.62185 | 9.97091 | 47 ft | 134 kts | 51° |
| 2026-05-05 16:43 | 53.62698 | 9.98142 | 45 ft | 89 kts | 50° |
| 2026-05-05 16:44 | 53.62983 | 9.98716 | 44 ft | 39 kts | 50° |
| 2026-05-05 16:44 | 53.63086 | 9.98982 | 43 ft | 22 kts | 75° |
| 2026-05-05 16:44 | 53.63090 | 9.99195 | 44 ft | 12 kts | 95° |
| 2026-05-05 16:44 | 53.63085 | 9.99295 | 44 ft | 8 kts | 91° |
| 2026-05-05 16:45 | 53.63092 | 9.99375 | 45 ft | 6 kts | 73° |
| 2026-05-05 16:45 | 53.63111 | 9.99431 | 44 ft | 6 kts | 57° |
| 2026-05-05 16:45 | 53.63163 | 9.99549 | 44 ft | 17 kts | 51° |
| 2026-05-05 16:45 | 53.63214 | 9.99655 | 45 ft | 5 kts | 50° |
| 2026-05-05 16:46 | 53.63217 | 9.99661 | 45 ft | 0 kts | 50° |
| 2026-05-05 16:46 | 53.63219 | 9.99664 | 45 ft | 3 kts | 49° |
| 2026-05-05 16:46 | 53.63274 | 9.99756 | 45 ft | 16 kts | 44° |
| 2026-05-05 16:46 | 53.63345 | 9.99896 | 45 ft | 15 kts | 50° |
| 2026-05-05 16:47 | 53.63405 | 10.00018 | 46 ft | 10 kts | 50° |
| 2026-05-05 16:47 | 53.63425 | 10.00112 | 46 ft | 8 kts | 105° |
| 2026-05-05 16:47 | 53.63402 | 10.00192 | 46 ft | 7 kts | 125° |
| 2026-05-05 16:47 | 53.63364 | 10.00230 | 46 ft | 6 kts | 155° |
| 2026-05-05 16:48 | 53.63354 | 10.00274 | 46 ft | 4 kts | 84° |
| 2026-05-05 16:48 | 53.63357 | 10.00318 | 44 ft | 3 kts | 86° |
| 2026-05-05 16:48 | 53.63358 | 10.00346 | 44 ft | 1 kts | 86° |
| 2026-05-05 16:48 | 53.63334 | 10.00354 | 46 ft | 0 kts | 86° |